createdAt,value
2023-05-13T00:00:03.918Z,2.63
2023-05-13T00:02:31.761Z,2.88
2023-05-13T00:04:59.629Z,2.72
2023-05-13T00:07:28.679Z,2.92
2023-05-13T00:09:56.444Z,2.42
2023-05-13T00:12:24.275Z,2.50
2023-05-13T00:14:52.050Z,2.22
2023-05-13T00:17:19.770Z,2.88
2023-05-13T00:19:47.516Z,2.65
2023-05-13T00:22:15.295Z,2.92
2023-05-13T00:24:44.710Z,3.10
2023-05-13T00:27:12.818Z,2.80
2023-05-13T00:29:40.580Z,3.60
2023-05-13T00:32:08.671Z,2.80
2023-05-13T00:34:36.425Z,3.17
2023-05-13T00:37:04.869Z,2.85
2023-05-13T00:39:32.698Z,2.92
2023-05-13T00:42:04.311Z,3.15
2023-05-13T00:44:32.067Z,2.83
2023-05-13T00:47:00.277Z,2.80
2023-05-13T00:49:28.257Z,3.35
2023-05-13T00:51:56.149Z,3.60
2023-05-13T00:54:23.961Z,2.85
2023-05-13T00:56:54.363Z,3.20
2023-05-13T00:59:24.833Z,3.42
2023-05-13T01:02:02.865Z,3.20
2023-05-13T01:04:38.658Z,3.67
2023-05-13T01:07:13.250Z,3.17
2023-05-13T01:09:53.260Z,2.90
2023-05-13T01:12:27.492Z,3.17
2023-05-13T01:15:02.579Z,2.83
2023-05-13T01:17:36.741Z,2.80
2023-05-13T01:20:06.046Z,3.00
2023-05-13T01:22:35.202Z,3.10
2023-05-13T01:25:02.961Z,3.78
2023-05-13T01:27:30.745Z,3.47
2023-05-13T01:29:58.849Z,4.03
2023-05-13T01:32:27.161Z,3.28
2023-05-13T01:34:56.646Z,3.03
2023-05-13T01:37:24.938Z,2.80
2023-05-13T01:39:54.183Z,3.20
2023-05-13T01:42:22.064Z,3.17
2023-05-13T01:44:49.868Z,3.60
2023-05-13T01:47:17.688Z,3.65
2023-05-13T01:49:45.400Z,3.33
2023-05-13T01:52:13.230Z,3.72
2023-05-13T01:54:40.929Z,3.60
2023-05-13T01:57:09.985Z,3.58
2023-05-13T01:59:37.710Z,4.20
2023-05-13T02:02:05.784Z,3.15
2023-05-13T02:04:33.512Z,3.03
2023-05-13T02:07:01.274Z,2.95
2023-05-13T02:09:29.061Z,2.90
2023-05-13T02:11:56.782Z,3.08
2023-05-13T02:14:26.024Z,3.50
2023-05-13T02:16:53.897Z,2.83
2023-05-13T02:19:23.793Z,2.70
2023-05-13T02:21:51.598Z,2.45
2023-05-13T02:24:19.360Z,2.55
2023-05-13T02:26:47.088Z,2.33
2023-05-13T02:29:15.098Z,2.63
2023-05-13T02:31:44.205Z,2.50
2023-05-13T02:34:12.029Z,2.80
2023-05-13T02:36:39.771Z,2.50
2023-05-13T02:39:08.153Z,2.30
2023-05-13T02:41:36.403Z,2.65
2023-05-13T02:44:04.573Z,2.95
2023-05-13T02:46:32.455Z,2.60
2023-05-13T02:49:07.580Z,2.85
2023-05-13T02:51:35.336Z,3.97
2023-05-13T02:54:03.106Z,3.78
2023-05-13T02:56:30.854Z,3.30
2023-05-13T02:58:58.548Z,2.97
2023-05-13T03:01:27.029Z,3.15
2023-05-13T03:03:54.849Z,3.33
2023-05-13T03:06:23.955Z,4.22
2023-05-13T03:08:51.683Z,3.70
2023-05-13T03:11:19.420Z,3.65
2023-05-13T03:13:47.147Z,3.70
2023-05-13T03:16:15.110Z,3.58
2023-05-13T03:18:42.922Z,3.10
2023-05-13T03:21:11.116Z,3.90
2023-05-13T03:23:40.186Z,4.18
2023-05-13T03:26:07.979Z,3.53
2023-05-13T03:28:35.827Z,3.80
2023-05-13T03:31:03.614Z,3.70
2023-05-13T03:33:31.375Z,3.40
2023-05-13T03:35:59.193Z,3.45
2023-05-13T03:38:26.976Z,3.50
2023-05-13T03:40:56.083Z,3.67
2023-05-13T03:43:23.854Z,3.42
2023-05-13T03:45:52.010Z,3.85
2023-05-13T03:48:19.753Z,3.63
2023-05-13T03:50:47.632Z,3.60
2023-05-13T03:53:15.325Z,3.70
2023-05-13T03:55:43.353Z,4.20
2023-05-13T03:58:16.212Z,3.50
2023-05-13T04:00:46.393Z,4.07
2023-05-13T04:03:14.278Z,3.97
2023-05-13T04:05:42.071Z,4.00
2023-05-13T04:08:11.179Z,3.78
2023-05-13T04:10:39.037Z,3.75
2023-05-13T04:13:08.315Z,3.83
2023-05-13T04:15:37.542Z,3.67
2023-05-13T04:18:05.406Z,3.72
2023-05-13T04:20:33.143Z,4.18
2023-05-13T04:23:01.553Z,4.22
2023-05-13T04:25:29.308Z,3.95
2023-05-13T04:27:57.046Z,4.47
2023-05-13T04:30:24.825Z,4.43
2023-05-13T04:32:53.978Z,4.32
2023-05-13T04:35:21.947Z,4.85
2023-05-13T04:37:50.330Z,5.22
2023-05-13T04:40:18.410Z,5.90
2023-05-13T04:42:46.196Z,4.65
2023-05-13T04:45:13.986Z,5.30
2023-05-13T04:47:41.788Z,5.55
2023-05-13T04:50:11.823Z,4.97
2023-05-13T04:52:42.731Z,5.63
2023-05-13T04:55:10.951Z,5.38
2023-05-13T04:57:39.263Z,5.38
2023-05-13T05:00:09.540Z,5.68
2023-05-13T05:02:37.361Z,5.47
2023-05-13T05:05:05.381Z,5.07
2023-05-13T05:07:35.095Z,6.05
2023-05-13T05:10:02.974Z,5.30
2023-05-13T05:12:32.238Z,5.97
2023-05-13T05:15:00.176Z,8.65
2023-05-13T05:17:32.391Z,8.60
2023-05-13T05:20:00.212Z,6.20
2023-05-13T05:22:28.221Z,6.55
2023-05-13T05:24:57.277Z,8.27
2023-05-13T05:27:25.059Z,6.90
2023-05-13T05:29:52.758Z,5.82
2023-05-13T05:32:20.817Z,5.13
2023-05-13T05:34:48.648Z,5.50
2023-05-13T05:37:16.339Z,4.80
2023-05-13T05:39:44.072Z,6.03
2023-05-13T05:42:13.149Z,4.07
2023-05-13T05:44:40.857Z,4.97
2023-05-13T05:47:08.684Z,4.70
2023-05-13T05:49:36.393Z,4.32
2023-05-13T05:52:04.192Z,4.80
2023-05-13T05:54:32.019Z,4.47
2023-05-13T05:56:59.736Z,5.13
2023-05-13T05:59:28.828Z,4.35
2023-05-13T06:01:56.649Z,4.10
2023-05-13T06:04:24.704Z,3.63
2023-05-13T06:06:52.479Z,3.80
2023-05-13T06:09:20.344Z,3.78
2023-05-13T06:11:48.064Z,3.85
2023-05-13T06:14:16.104Z,3.60
2023-05-13T06:16:45.218Z,3.13
2023-05-13T06:19:13.723Z,3.53
2023-05-13T06:21:43.094Z,2.70
2023-05-13T06:24:11.035Z,5.72
2023-05-13T06:26:38.833Z,3.65
2023-05-13T06:29:06.650Z,2.78
2023-05-13T06:31:34.460Z,3.17
2023-05-13T06:34:03.617Z,3.17
2023-05-13T06:36:31.804Z,3.55
2023-05-13T06:38:59.686Z,2.75
2023-05-13T06:41:27.616Z,2.15
2023-05-13T06:43:55.366Z,1.77
2023-05-13T06:46:23.143Z,3.33
2023-05-13T06:48:52.336Z,4.60
2023-05-13T06:51:21.682Z,2.92
2023-05-13T06:53:49.369Z,2.60
2023-05-13T06:56:17.038Z,2.20
2023-05-13T06:58:44.867Z,2.38
2023-05-13T07:01:12.618Z,2.00
2023-05-13T07:03:40.412Z,1.77
2023-05-13T07:06:09.268Z,1.95
2023-05-13T07:08:38.446Z,1.90
2023-05-13T07:11:06.252Z,2.00
2023-05-13T07:13:34.905Z,3.40
2023-05-13T07:16:03.133Z,2.78
2023-05-13T07:18:31.032Z,2.38
2023-05-13T07:20:58.806Z,3.45
2023-05-13T07:23:26.872Z,3.30
2023-05-13T07:25:56.405Z,1.88
2023-05-13T07:28:24.303Z,2.05
2023-05-13T07:30:53.333Z,2.00
2023-05-13T07:33:21.261Z,1.73
2023-05-13T07:35:49.092Z,1.90
2023-05-13T07:38:17.405Z,1.60
2023-05-13T07:40:45.103Z,2.10
2023-05-13T07:43:14.492Z,1.90
2023-05-13T07:45:42.430Z,1.90
2023-05-13T07:48:10.821Z,1.67
2023-05-13T07:50:39.138Z,1.50
2023-05-13T07:53:06.901Z,1.92
2023-05-13T07:55:34.741Z,2.45
2023-05-13T07:58:02.698Z,1.75
2023-05-13T08:00:31.744Z,1.88
2023-05-13T08:03:02.647Z,1.83
2023-05-13T08:05:32.173Z,1.60
2023-05-13T08:08:02.301Z,1.95
2023-05-13T08:10:31.981Z,1.73
2023-05-13T08:13:01.859Z,1.63
2023-05-13T08:15:32.818Z,1.73
2023-05-13T08:18:02.452Z,1.80
2023-05-13T08:20:33.094Z,2.05
2023-05-13T08:23:02.654Z,1.38
2023-05-13T08:25:32.183Z,1.88
2023-05-13T08:28:02.004Z,1.58
2023-05-13T08:30:33.145Z,1.50
2023-05-13T08:33:03.102Z,1.63
2023-05-13T08:35:33.095Z,1.50
2023-05-13T08:38:04.151Z,1.75
2023-05-13T08:40:34.271Z,1.75
2023-05-13T08:43:04.643Z,1.60
2023-05-13T08:45:36.591Z,1.98
2023-05-13T08:48:07.886Z,1.80
2023-05-13T08:50:37.161Z,1.70
2023-05-13T08:53:05.846Z,1.98
2023-05-13T08:55:34.903Z,1.75
2023-05-13T08:58:04.907Z,1.58
2023-05-13T09:00:39.689Z,1.70
2023-05-13T09:03:08.862Z,5.93
2023-05-13T09:05:39.070Z,2.63
2023-05-13T09:08:10.922Z,2.00
2023-05-13T09:10:40.045Z,2.15
2023-05-13T09:13:09.385Z,1.80
2023-05-13T09:15:44.192Z,1.90
2023-05-13T09:18:16.495Z,1.67
2023-05-13T09:20:48.541Z,1.90
2023-05-13T09:23:22.097Z,1.63
2023-05-13T09:25:50.803Z,1.90
2023-05-13T09:28:23.777Z,2.30
2023-05-13T09:30:58.625Z,1.88
2023-05-13T09:33:31.818Z,1.30
2023-05-13T09:36:01.671Z,1.40
2023-05-13T09:38:32.785Z,1.60
2023-05-13T09:41:04.399Z,2.17
2023-05-13T09:43:34.505Z,3.22
2023-05-13T09:46:07.035Z,1.50
2023-05-13T09:48:38.266Z,1.73
2023-05-13T09:51:08.768Z,1.70
2023-05-13T09:53:38.584Z,1.48
2023-05-13T09:56:10.768Z,1.60
2023-05-13T09:58:38.643Z,1.63
2023-05-13T10:01:08.085Z,1.33
2023-05-13T10:03:36.060Z,1.67
2023-05-13T10:06:04.795Z,1.60
2023-05-13T10:08:32.977Z,1.67
2023-05-13T10:11:01.049Z,1.70
2023-05-13T10:13:30.648Z,1.27
2023-05-13T10:15:59.535Z,1.60
2023-05-13T10:18:29.439Z,1.65
2023-05-13T10:20:57.959Z,1.80
2023-05-13T10:23:25.828Z,1.50
2023-05-13T10:25:55.074Z,1.35
2023-05-13T10:28:23.183Z,1.80
2023-05-13T10:30:51.715Z,1.98
2023-05-13T10:33:19.853Z,1.40
2023-05-13T10:36:07.821Z,1.65
2023-05-13T10:38:48.834Z,1.90
2023-05-13T10:41:32.033Z,1.80
2023-05-13T10:44:00.163Z,1.80
2023-05-13T10:46:28.329Z,2.05
2023-05-13T10:48:59.133Z,1.63
2023-05-13T10:51:28.554Z,1.67
2023-05-13T10:53:58.944Z,1.55
2023-05-13T10:56:28.854Z,1.50
2023-05-13T10:59:01.270Z,1.70
2023-05-13T11:01:30.376Z,1.65
2023-05-13T11:04:01.434Z,1.73
2023-05-13T11:06:35.404Z,1.70
2023-05-13T11:09:06.820Z,1.90
2023-05-13T11:11:35.840Z,2.28
2023-05-13T11:14:16.898Z,2.08
2023-05-13T11:16:49.341Z,2.03
2023-05-13T11:19:21.893Z,2.03
2023-05-13T11:21:53.494Z,1.63
2023-05-13T11:24:22.830Z,1.63
2023-05-13T11:26:52.638Z,2.17
2023-05-13T11:29:31.355Z,1.48
2023-05-13T11:32:01.000Z,1.92
2023-05-13T11:34:30.020Z,3.67
2023-05-13T11:37:08.588Z,2.20
2023-05-13T11:39:39.270Z,2.53
2023-05-13T11:42:09.178Z,1.70
2023-05-13T11:44:37.434Z,1.90
2023-05-13T11:47:07.949Z,1.77
2023-05-13T11:49:38.778Z,1.70
2023-05-13T11:52:10.145Z,1.92
2023-05-13T11:54:49.105Z,1.63
2023-05-13T11:57:23.017Z,2.60
2023-05-13T11:59:55.013Z,2.00
2023-05-13T12:02:24.473Z,2.40
2023-05-13T12:04:53.320Z,1.92
2023-05-13T12:07:23.652Z,1.83
2023-05-13T12:09:51.528Z,1.60
2023-05-13T12:12:20.534Z,1.80
2023-05-13T12:14:50.227Z,2.00
2023-05-13T12:17:18.876Z,1.73
2023-05-13T12:20:06.349Z,1.80
2023-05-13T12:22:36.333Z,1.92
2023-05-13T12:25:34.180Z,1.70
2023-05-13T12:28:08.052Z,2.10
2023-05-13T12:30:36.346Z,2.20
2023-05-13T12:33:05.474Z,2.35
2023-05-13T12:35:33.750Z,2.25
2023-05-13T12:38:05.496Z,1.83
2023-05-13T12:40:33.511Z,1.90
2023-05-13T12:43:03.073Z,1.95
2023-05-13T12:45:31.629Z,1.77
2023-05-13T12:48:00.596Z,2.00
2023-05-13T12:50:28.684Z,2.53
2023-05-13T12:52:57.627Z,2.35
2023-05-13T12:55:27.891Z,2.30
2023-05-13T12:57:57.209Z,2.03
2023-05-13T13:00:25.343Z,2.28
2023-05-13T13:02:53.876Z,2.58
2023-05-13T13:05:22.095Z,2.00
2023-05-13T13:07:50.553Z,2.22
2023-05-13T13:10:18.490Z,2.50
2023-05-13T13:12:47.925Z,3.60
2023-05-13T13:15:15.868Z,2.13
2023-05-13T13:17:43.675Z,2.20
2023-05-13T13:20:12.394Z,2.00
2023-05-13T13:22:40.144Z,1.92
2023-05-13T13:25:08.487Z,1.83
2023-05-13T13:27:36.282Z,1.83
2023-05-13T13:30:07.823Z,2.15
2023-05-13T13:32:35.976Z,2.38
2023-05-13T13:35:05.653Z,2.00
2023-05-13T13:37:34.294Z,1.80
2023-05-13T13:40:03.487Z,2.03
2023-05-13T13:42:43.471Z,1.95
2023-05-13T13:45:14.569Z,1.88
2023-05-13T13:47:42.716Z,1.67
2023-05-13T13:50:11.609Z,1.60
2023-05-13T13:52:39.421Z,2.03
2023-05-13T13:55:08.294Z,1.80
2023-05-13T13:57:36.065Z,2.25
2023-05-13T14:00:03.865Z,2.22
2023-05-13T14:02:33.115Z,2.00
2023-05-13T14:05:00.980Z,2.00
2023-05-13T14:07:29.156Z,2.70
2023-05-13T14:09:58.007Z,1.90
2023-05-13T14:12:27.315Z,2.40
2023-05-13T14:14:55.081Z,2.20
2023-05-13T14:17:22.979Z,1.73
2023-05-13T14:19:55.033Z,2.05
2023-05-13T14:22:23.459Z,2.08
2023-05-13T14:24:52.021Z,1.83
2023-05-13T14:27:20.031Z,1.70
2023-05-13T14:29:48.482Z,1.73
2023-05-13T14:32:16.282Z,1.80
2023-05-13T14:34:44.091Z,1.90
2023-05-13T14:37:13.225Z,1.70
2023-05-13T14:39:40.982Z,1.90
2023-05-13T14:42:08.853Z,1.75
2023-05-13T14:44:36.569Z,1.65
2023-05-13T14:47:04.569Z,2.08
2023-05-13T14:49:32.383Z,1.42
2023-05-13T14:52:00.108Z,2.08
2023-05-13T14:54:35.261Z,1.75
2023-05-13T14:57:03.575Z,1.75
2023-05-13T14:59:31.733Z,2.28
2023-05-13T15:01:59.497Z,1.98
2023-05-13T15:04:27.828Z,1.88
2023-05-13T15:06:56.529Z,1.80
2023-05-13T15:09:24.306Z,1.52
2023-05-13T15:11:53.464Z,1.80
2023-05-13T15:14:25.689Z,1.50
2023-05-13T15:16:53.763Z,2.10
2023-05-13T15:19:21.669Z,1.52
2023-05-13T15:21:49.531Z,1.45
2023-05-13T15:24:17.282Z,1.80
2023-05-13T15:26:45.032Z,1.90
2023-05-13T15:29:14.089Z,1.80
2023-05-13T15:31:41.866Z,1.52
2023-05-13T15:34:09.607Z,1.45
2023-05-13T15:36:37.314Z,1.80
2023-05-13T15:39:05.068Z,2.10
2023-05-13T15:41:32.831Z,1.80
2023-05-13T15:44:00.605Z,1.77
2023-05-13T15:46:29.870Z,2.20
2023-05-13T15:48:57.634Z,2.08
2023-05-13T15:51:25.439Z,1.60
2023-05-13T15:53:53.416Z,2.00
2023-05-13T15:56:21.849Z,2.45
2023-05-13T15:58:51.467Z,2.10
2023-05-13T16:01:19.510Z,1.73
2023-05-13T16:03:48.698Z,1.50
2023-05-13T16:06:16.577Z,1.80
2023-05-13T16:08:44.362Z,1.52
2023-05-13T16:11:13.145Z,1.83
2023-05-13T16:13:40.920Z,1.80
2023-05-13T16:16:08.721Z,1.70
2023-05-13T16:18:36.537Z,1.92
2023-05-13T16:21:06.299Z,1.65
2023-05-13T16:23:34.022Z,1.50
2023-05-13T16:26:01.800Z,2.67
2023-05-13T16:28:29.541Z,2.53
2023-05-13T16:30:58.641Z,2.28
2023-05-13T16:33:26.793Z,1.58
2023-05-13T16:35:54.638Z,1.60
2023-05-13T16:38:25.485Z,1.83
2023-05-13T16:40:53.365Z,1.73
2023-05-13T16:43:21.147Z,1.80
2023-05-13T16:45:48.951Z,1.70
2023-05-13T16:48:17.086Z,1.60
2023-05-13T16:50:44.892Z,1.88
2023-05-13T16:53:13.371Z,1.65
2023-05-13T16:55:42.438Z,2.38
2023-05-13T16:58:10.234Z,1.80
2023-05-13T17:00:37.970Z,1.50
2023-05-13T17:03:05.744Z,1.60
2023-05-13T17:05:33.646Z,2.10
2023-05-13T17:08:01.346Z,1.77
2023-05-13T17:10:29.140Z,2.05
2023-05-13T17:12:58.484Z,1.92
2023-05-13T17:15:26.453Z,2.20
2023-05-13T17:17:54.281Z,1.80
2023-05-13T17:20:22.468Z,1.85
2023-05-13T17:22:50.432Z,2.25
2023-05-13T17:25:18.220Z,2.65
2023-05-13T17:27:45.924Z,3.83
2023-05-13T17:30:16.311Z,4.38
2023-05-13T17:32:44.050Z,2.92
2023-05-13T17:35:11.864Z,2.50
2023-05-13T17:37:39.626Z,2.60
2023-05-13T17:40:09.052Z,2.60
2023-05-13T17:42:36.847Z,2.40
2023-05-13T17:45:05.246Z,2.40
2023-05-13T17:47:34.802Z,2.00
2023-05-13T17:50:02.595Z,4.63
2023-05-13T17:52:30.322Z,4.18
2023-05-13T17:54:58.117Z,4.05
2023-05-13T17:57:25.895Z,4.75
2023-05-13T17:59:53.789Z,5.40
2023-05-13T18:02:21.566Z,4.82
2023-05-13T18:04:52.040Z,4.68
2023-05-13T18:07:20.458Z,2.63
2023-05-13T18:09:49.924Z,2.40
2023-05-13T18:12:18.025Z,4.35
2023-05-13T18:14:45.822Z,3.95
2023-05-13T18:17:13.690Z,2.60
2023-05-13T18:19:41.473Z,2.95
2023-05-13T18:22:10.771Z,2.80
2023-05-13T18:24:39.199Z,4.65
2023-05-13T18:27:08.076Z,4.30
2023-05-13T18:29:36.224Z,3.60
2023-05-13T18:32:04.829Z,3.20
2023-05-13T18:34:33.607Z,2.85
2023-05-13T18:37:01.543Z,2.30
2023-05-13T18:39:31.271Z,3.40
2023-05-13T18:41:58.969Z,4.40
2023-05-13T18:44:26.715Z,3.10
2023-05-13T18:46:54.557Z,2.95
2023-05-13T18:49:22.905Z,2.70
2023-05-13T18:51:50.888Z,3.30
2023-05-13T18:54:18.590Z,3.40
2023-05-13T18:56:47.680Z,3.30
2023-05-13T18:59:15.441Z,3.13
2023-05-13T19:01:43.395Z,3.25
2023-05-13T19:04:12.153Z,3.78
2023-05-13T19:06:40.169Z,2.72
2023-05-13T19:09:07.942Z,3.38
2023-05-13T19:11:35.747Z,3.60
2023-05-13T19:14:04.859Z,3.30
2023-05-13T19:16:32.704Z,3.60
2023-05-13T19:19:00.598Z,3.90
2023-05-13T19:21:28.448Z,3.40
2023-05-13T19:23:56.250Z,3.38
2023-05-13T19:26:24.068Z,3.75
2023-05-13T19:28:52.191Z,3.60
2023-05-13T19:31:21.959Z,3.47
2023-05-13T19:33:49.818Z,4.15
2023-05-13T19:36:17.538Z,3.72
2023-05-13T19:38:45.338Z,3.58
2023-05-13T19:41:13.155Z,3.92
2023-05-13T19:43:40.863Z,3.95
2023-05-13T19:46:08.716Z,3.47
2023-05-13T19:48:37.890Z,3.60
2023-05-13T19:51:05.690Z,3.53
2023-05-13T19:53:33.403Z,3.40
2023-05-13T19:56:01.422Z,3.88
2023-05-13T19:58:29.273Z,3.30
2023-05-13T20:00:56.994Z,3.58
2023-05-13T20:03:24.947Z,3.35
2023-05-13T20:05:54.188Z,3.55
2023-05-13T20:08:22.319Z,3.75
2023-05-13T20:10:50.022Z,3.50
2023-05-13T20:13:17.787Z,3.75
2023-05-13T20:15:45.504Z,3.85
2023-05-13T20:18:13.501Z,4.28
2023-05-13T20:20:41.520Z,3.88
2023-05-13T20:23:11.998Z,4.57
2023-05-13T20:25:40.926Z,4.88
2023-05-13T20:28:08.762Z,4.03
2023-05-13T20:30:36.674Z,4.68
2023-05-13T20:33:04.621Z,3.60
2023-05-13T20:35:32.832Z,3.50
2023-05-13T20:38:01.089Z,3.67
2023-05-13T20:40:30.346Z,4.43
2023-05-13T20:43:01.077Z,4.03
2023-05-13T20:45:29.066Z,4.65
2023-05-13T20:47:59.182Z,3.95
2023-05-13T20:50:28.269Z,4.10
2023-05-13T20:52:56.205Z,4.10
2023-05-13T20:55:24.144Z,3.97
2023-05-13T20:57:53.423Z,3.63
2023-05-13T21:00:22.045Z,4.50
2023-05-13T21:02:51.634Z,4.18
2023-05-13T21:05:19.630Z,4.97
2023-05-13T21:07:47.427Z,4.43
2023-05-13T21:10:15.992Z,4.50
2023-05-13T21:12:47.428Z,3.30
2023-05-13T21:15:16.633Z,3.25
2023-05-13T21:17:44.446Z,3.45
2023-05-13T21:20:13.333Z,3.45
2023-05-13T21:22:41.153Z,2.90
2023-05-13T21:25:09.734Z,2.88
2023-05-13T21:27:37.602Z,2.90
2023-05-13T21:30:06.133Z,3.63
2023-05-13T21:32:35.232Z,3.28
2023-05-13T21:35:03.194Z,2.70
2023-05-13T21:37:30.987Z,3.00
2023-05-13T21:39:58.897Z,2.60
2023-05-13T21:42:27.056Z,2.85
2023-05-13T21:44:55.057Z,2.67
2023-05-13T21:47:23.240Z,2.60
2023-05-13T21:49:52.421Z,2.20
2023-05-13T21:52:20.206Z,2.40
2023-05-13T21:54:47.956Z,2.88
2023-05-13T21:57:15.692Z,2.95
2023-05-13T21:59:43.516Z,3.05
2023-05-13T22:02:11.309Z,2.80
2023-05-13T22:04:39.088Z,2.65
2023-05-13T22:07:08.511Z,2.70
2023-05-13T22:09:36.590Z,2.55
2023-05-13T22:12:04.763Z,2.65
2023-05-13T22:14:32.474Z,2.20
2023-05-13T22:17:08.966Z,1.85
2023-05-13T22:19:37.854Z,2.38
2023-05-13T22:22:06.103Z,2.35
2023-05-13T22:24:35.273Z,1.95
2023-05-13T22:27:03.185Z,3.00
2023-05-13T22:29:31.208Z,2.20
2023-05-13T22:31:59.162Z,2.85
2023-05-13T22:34:27.652Z,3.40
2023-05-13T22:36:55.704Z,2.60
2023-05-13T22:39:23.538Z,2.53
2023-05-13T22:41:54.569Z,2.00
2023-05-13T22:44:23.838Z,3.00
2023-05-13T22:46:52.540Z,2.70
2023-05-13T22:49:20.441Z,2.38
2023-05-13T22:51:48.718Z,2.55
2023-05-13T22:54:16.605Z,2.55
2023-05-13T22:56:44.375Z,2.88
2023-05-13T22:59:13.521Z,2.88
2023-05-13T23:01:41.726Z,2.10
2023-05-13T23:04:09.920Z,2.20
2023-05-13T23:06:37.667Z,2.40
2023-05-13T23:09:05.639Z,1.98
2023-05-13T23:11:33.442Z,2.20
2023-05-13T23:14:01.204Z,2.60
2023-05-13T23:16:30.286Z,1.85
2023-05-13T23:18:58.153Z,1.98
2023-05-13T23:21:25.958Z,1.92
2023-05-13T23:23:53.682Z,2.00
2023-05-13T23:26:21.926Z,1.90
2023-05-13T23:28:49.629Z,2.40
2023-05-13T23:31:17.364Z,2.20
2023-05-13T23:33:46.449Z,2.17
2023-05-13T23:36:15.685Z,2.30
2023-05-13T23:38:43.419Z,1.90
2023-05-13T23:41:11.165Z,1.88
2023-05-13T23:43:38.866Z,1.80
2023-05-13T23:46:06.743Z,1.80
2023-05-13T23:48:34.496Z,1.90
2023-05-13T23:51:03.647Z,1.95
2023-05-13T23:53:31.378Z,1.95
2023-05-13T23:55:59.082Z,2.10
2023-05-13T23:58:26.964Z,1.85
